Terminal Aerodrome Forecast
Issued by NWS Mt. Holly, NJ

Home | Current Version | Previous Version | Text Only | Print | Product List | Glossary On
Versions: 1 2 3 4 5 6 7 8 9 10 11 12 13 14 15 16 17
000
FTUS41 KPHI 281738
TAFACY
TAF
KACY 281738Z 2818/2918 18008KT P6SM SCT200
     FM282000 19010KT P6SM BKN050
      TEMPO 2822/2824 31014KT 5SM SHRA BKN040
     FM290000 VRB03KT P6SM BKN250
     FM290600 VRB03KT 4SM BR SKC
     FM291200 05004KT P6SM FEW010
     FM291500 09006KT P6SM FEW030=

USA.gov is the U.S. government's official web portal to all federal, state and local government web resources and services.